sensor_id;sensor_type;location;lat;lon;timestamp;pressure;altitude;pressure_sealevel;temperature;humidity
11053;BME280;55230;42.602;23.470;2023-04-26T00:00:02;92525.19;;;7.47;100.00
11053;BME280;55230;42.602;23.470;2023-04-26T00:02:33;92603.53;;;7.96;100.00
11053;BME280;55230;42.602;23.470;2023-04-26T00:05:00;92321.53;;;5.70;100.00
11053;BME280;55230;42.602;23.470;2023-04-26T00:07:28;92590.13;;;7.87;100.00
11053;BME280;55230;42.602;23.470;2023-04-26T00:09:55;92589.84;;;7.76;100.00
11053;BME280;55230;42.602;23.470;2023-04-26T00:12:23;92588.25;;;7.61;100.00
11053;BME280;55230;42.602;23.470;2023-04-26T00:14:50;92585.97;;;7.59;100.00
11053;BME280;55230;42.602;23.470;2023-04-26T00:17:17;92584.50;;;7.49;100.00
11053;BME280;55230;42.602;23.470;2023-04-26T00:19:43;92573.81;;;7.40;100.00
11053;BME280;55230;42.602;23.470;2023-04-26T00:22:11;92432.25;;;6.39;100.00
11053;BME280;55230;42.602;23.470;2023-04-26T00:24:37;92449.34;;;6.42;100.00
11053;BME280;55230;42.602;23.470;2023-04-26T00:27:04;92571.25;;;7.10;100.00
11053;BME280;55230;42.602;23.470;2023-04-26T00:29:36;92600.28;;;6.93;100.00
11053;BME280;55230;42.602;23.470;2023-04-26T00:32:03;92566.06;;;6.88;100.00
11053;BME280;55230;42.602;23.470;2023-04-26T00:34:33;92557.69;;;6.77;100.00
11053;BME280;55230;42.602;23.470;2023-04-26T00:36:59;92569.00;;;6.72;100.00
11053;BME280;55230;42.602;23.470;2023-04-26T00:39:26;92550.97;;;6.63;100.00
11053;BME280;55230;42.602;23.470;2023-04-26T00:41:53;92295.13;;;4.01;100.00
11053;BME280;55230;42.602;23.470;2023-04-26T00:44:20;92549.03;;;6.55;100.00
11053;BME280;55230;42.602;23.470;2023-04-26T00:46:48;92361.28;;;5.01;100.00
11053;BME280;55230;42.602;23.470;2023-04-26T00:49:18;92512.97;;;6.29;100.00
11053;BME280;55230;42.602;23.470;2023-04-26T00:51:46;92503.69;;;6.03;100.00
11053;BME280;55230;42.602;23.470;2023-04-26T00:54:14;92550.03;;;6.39;100.00
11053;BME280;55230;42.602;23.470;2023-04-26T00:56:41;92551.81;;;6.42;100.00
11053;BME280;55230;42.602;23.470;2023-04-26T00:59:08;92562.22;;;6.40;100.00
11053;BME280;55230;42.602;23.470;2023-04-26T01:01:35;92580.78;;;6.26;100.00
11053;BME280;55230;42.602;23.470;2023-04-26T01:04:04;92553.00;;;6.32;100.00
11053;BME280;55230;42.602;23.470;2023-04-26T01:06:33;92213.78;;;3.96;100.00
11053;BME280;55230;42.602;23.470;2023-04-26T01:09:02;92549.09;;;6.24;100.00
11053;BME280;55230;42.602;23.470;2023-04-26T01:11:30;92556.38;;;6.24;100.00
11053;BME280;55230;42.602;23.470;2023-04-26T01:13:57;92557.53;;;6.14;100.00
11053;BME280;55230;42.602;23.470;2023-04-26T01:16:25;92294.03;;;4.32;100.00
11053;BME280;55230;42.602;23.470;2023-04-26T01:18:53;92572.38;;;6.06;100.00
11053;BME280;55230;42.602;23.470;2023-04-26T01:21:23;92502.91;;;5.62;100.00
11053;BME280;55230;42.602;23.470;2023-04-26T01:23:51;92545.03;;;5.80;100.00
11053;BME280;55230;42.602;23.470;2023-04-26T01:26:18;92401.34;;;5.01;100.00
11053;BME280;55230;42.602;23.470;2023-04-26T01:28:45;92560.75;;;6.00;100.00
11053;BME280;55230;42.602;23.470;2023-04-26T01:31:13;92553.47;;;6.00;100.00
11053;BME280;55230;42.602;23.470;2023-04-26T01:33:40;92474.47;;;5.47;100.00
11053;BME280;55230;42.602;23.470;2023-04-26T01:36:08;92540.69;;;5.95;100.00
11053;BME280;55230;42.602;23.470;2023-04-26T01:38:35;92537.25;;;5.73;100.00
11053;BME280;55230;42.602;23.470;2023-04-26T01:41:03;92562.53;;;5.94;100.00
11053;BME280;55230;42.602;23.470;2023-04-26T01:43:30;92552.88;;;5.96;100.00
11053;BME280;55230;42.602;23.470;2023-04-26T01:45:57;92280.41;;;4.09;100.00
11053;BME280;55230;42.602;23.470;2023-04-26T01:48:23;92035.47;;;2.04;100.00
11053;BME280;55230;42.602;23.470;2023-04-26T01:50:50;92165.44;;;3.20;100.00
11053;BME280;55230;42.602;23.470;2023-04-26T01:53:17;92549.00;;;5.97;100.00
11053;BME280;55230;42.602;23.470;2023-04-26T01:55:44;92431.16;;;5.30;100.00
11053;BME280;55230;42.602;23.470;2023-04-26T01:58:12;92287.66;;;4.08;100.00
11053;BME280;55230;42.602;23.470;2023-04-26T02:00:38;92545.06;;;6.20;100.00
11053;BME280;55230;42.602;23.470;2023-04-26T02:03:05;92481.50;;;5.93;100.00
11053;BME280;55230;42.602;23.470;2023-04-26T02:05:32;92390.06;;;5.37;100.00
11053;BME280;55230;42.602;23.470;2023-04-26T02:07:59;92376.16;;;5.11;100.00
11053;BME280;55230;42.602;23.470;2023-04-26T02:10:26;92542.41;;;6.29;100.00
11053;BME280;55230;42.602;23.470;2023-04-26T02:12:53;92514.25;;;6.06;100.00
11053;BME280;55230;42.602;23.470;2023-04-26T02:15:21;92571.88;;;6.29;100.00
11053;BME280;55230;42.602;23.470;2023-04-26T02:17:47;92549.84;;;6.25;100.00
11053;BME280;55230;42.602;23.470;2023-04-26T02:20:14;92543.31;;;6.26;100.00
11053;BME280;55230;42.602;23.470;2023-04-26T02:22:41;92441.84;;;5.61;100.00
11053;BME280;55230;42.602;23.470;2023-04-26T02:25:08;92530.47;;;6.12;100.00
11053;BME280;55230;42.602;23.470;2023-04-26T02:27:35;92310.56;;;4.49;100.00
11053;BME280;55230;42.602;23.470;2023-04-26T02:30:03;92557.78;;;5.98;100.00
11053;BME280;55230;42.602;23.470;2023-04-26T02:32:31;92570.00;;;6.08;100.00
11053;BME280;55230;42.602;23.470;2023-04-26T02:34:58;92552.94;;;6.14;100.00
11053;BME280;55230;42.602;23.470;2023-04-26T02:37:25;92556.97;;;6.19;100.00
11053;BME280;55230;42.602;23.470;2023-04-26T02:39:52;92503.94;;;5.96;100.00
11053;BME280;55230;42.602;23.470;2023-04-26T02:42:18;92552.53;;;6.34;100.00
11053;BME280;55230;42.602;23.470;2023-04-26T02:44:45;92553.16;;;6.38;100.00
11053;BME280;55230;42.602;23.470;2023-04-26T02:47:12;92547.47;;;6.27;100.00
11053;BME280;55230;42.602;23.470;2023-04-26T02:49:40;92481.13;;;6.22;100.00
11053;BME280;55230;42.602;23.470;2023-04-26T02:52:07;92508.91;;;6.06;100.00
11053;BME280;55230;42.602;23.470;2023-04-26T02:54:34;92519.44;;;6.58;100.00
11053;BME280;55230;42.602;23.470;2023-04-26T02:57:00;92487.25;;;6.31;100.00
11053;BME280;55230;42.602;23.470;2023-04-26T02:59:27;92328.59;;;5.37;100.00
11053;BME280;55230;42.602;23.470;2023-04-26T03:01:54;92410.94;;;6.00;100.00
11053;BME280;55230;42.602;23.470;2023-04-26T03:04:21;92522.13;;;6.76;100.00
11053;BME280;55230;42.602;23.470;2023-04-26T03:06:49;92541.16;;;6.60;100.00
11053;BME280;55230;42.602;23.470;2023-04-26T03:09:15;92494.56;;;6.40;100.00
11053;BME280;55230;42.602;23.470;2023-04-26T03:11:42;92160.94;;;4.04;100.00
11053;BME280;55230;42.602;23.470;2023-04-26T03:14:09;92517.81;;;6.70;100.00
11053;BME280;55230;42.602;23.470;2023-04-26T03:16:40;92514.09;;;6.76;100.00
11053;BME280;55230;42.602;23.470;2023-04-26T03:19:07;92502.47;;;6.70;100.00
11053;BME280;55230;42.602;23.470;2023-04-26T03:21:34;92516.34;;;6.78;100.00
11053;BME280;55230;42.602;23.470;2023-04-26T03:24:02;92513.94;;;6.80;100.00
11053;BME280;55230;42.602;23.470;2023-04-26T03:26:29;92389.97;;;5.98;100.00
11053;BME280;55230;42.602;23.470;2023-04-26T03:28:56;91894.28;;;2.67;100.00
11053;BME280;55230;42.602;23.470;2023-04-26T03:31:23;92055.25;;;3.58;100.00
11053;BME280;55230;42.602;23.470;2023-04-26T03:33:50;92421.94;;;6.20;100.00
11053;BME280;55230;42.602;23.470;2023-04-26T03:36:17;92518.41;;;7.01;100.00
11053;BME280;55230;42.602;23.470;2023-04-26T03:38:44;92511.13;;;7.11;100.00
11053;BME280;55230;42.602;23.470;2023-04-26T03:41:12;92519.88;;;7.11;100.00
11053;BME280;55230;42.602;23.470;2023-04-26T03:43:39;92463.66;;;6.66;100.00
11053;BME280;55230;42.602;23.470;2023-04-26T03:46:06;92577.97;;;7.14;100.00
11053;BME280;55230;42.602;23.470;2023-04-26T03:48:32;91970.75;;;3.58;100.00
11053;BME280;55230;42.602;23.470;2023-04-26T03:51:00;92482.34;;;7.11;100.00
11053;BME280;55230;42.602;23.470;2023-04-26T03:53:28;92523.25;;;7.57;100.00
11053;BME280;55230;42.602;23.470;2023-04-26T03:55:55;92435.31;;;7.19;100.00
11053;BME280;55230;42.602;23.470;2023-04-26T03:58:23;92469.94;;;7.41;100.00
11053;BME280;55230;42.602;23.470;2023-04-26T04:00:50;92546.84;;;8.03;100.00
11053;BME280;55230;42.602;23.470;2023-04-26T04:03:17;92465.25;;;7.68;100.00
11053;BME280;55230;42.602;23.470;2023-04-26T04:05:45;92375.72;;;7.24;100.00
11053;BME280;55230;42.602;23.470;2023-04-26T04:08:12;92424.91;;;7.95;100.00
11053;BME280;55230;42.602;23.470;2023-04-26T04:10:38;92534.94;;;8.84;100.00
11053;BME280;55230;42.602;23.470;2023-04-26T04:13:06;92551.16;;;8.99;100.00
11053;BME280;55230;42.602;23.470;2023-04-26T04:15:35;92445.03;;;8.24;100.00
11053;BME280;55230;42.602;23.470;2023-04-26T04:18:02;92141.03;;;5.93;100.00
11053;BME280;55230;42.602;23.470;2023-04-26T04:20:28;92472.81;;;8.68;100.00
11053;BME280;55230;42.602;23.470;2023-04-26T04:22:55;92479.38;;;8.43;100.00
11053;BME280;55230;42.602;23.470;2023-04-26T04:25:23;92516.25;;;8.90;100.00
11053;BME280;55230;42.602;23.470;2023-04-26T04:27:50;92190.19;;;6.55;100.00
11053;BME280;55230;42.602;23.470;2023-04-26T04:30:17;92540.38;;;8.52;100.00
11053;BME280;55230;42.602;23.470;2023-04-26T04:32:46;92555.78;;;8.75;100.00
11053;BME280;55230;42.602;23.470;2023-04-26T04:35:12;92546.28;;;8.32;100.00
11053;BME280;55230;42.602;23.470;2023-04-26T04:37:39;92597.66;;;8.58;100.00
11053;BME280;55230;42.602;23.470;2023-04-26T04:40:07;92497.75;;;7.70;100.00
11053;BME280;55230;42.602;23.470;2023-04-26T04:42:35;92495.47;;;8.19;100.00
11053;BME280;55230;42.602;23.470;2023-04-26T04:45:02;92559.72;;;7.81;100.00
11053;BME280;55230;42.602;23.470;2023-04-26T04:47:29;92574.22;;;8.26;100.00
11053;BME280;55230;42.602;23.470;2023-04-26T04:49:57;92570.16;;;8.30;100.00
11053;BME280;55230;42.602;23.470;2023-04-26T04:52:24;92563.78;;;8.28;100.00
11053;BME280;55230;42.602;23.470;2023-04-26T04:54:51;92547.28;;;8.44;100.00
11053;BME280;55230;42.602;23.470;2023-04-26T04:57:18;92575.34;;;8.99;100.00
11053;BME280;55230;42.602;23.470;2023-04-26T04:59:44;92580.53;;;9.26;100.00
11053;BME280;55230;42.602;23.470;2023-04-26T05:02:11;92467.81;;;8.75;100.00
11053;BME280;55230;42.602;23.470;2023-04-26T05:04:38;92585.31;;;9.60;100.00
11053;BME280;55230;42.602;23.470;2023-04-26T05:07:06;92378.31;;;8.31;100.00
11053;BME280;55230;42.602;23.470;2023-04-26T05:09:34;92581.00;;;9.39;100.00
11053;BME280;55230;42.602;23.470;2023-04-26T05:12:01;92524.59;;;8.92;100.00
11053;BME280;55230;42.602;23.470;2023-04-26T05:14:28;92590.94;;;9.48;100.00
11053;BME280;55230;42.602;23.470;2023-04-26T05:16:55;92651.91;;;9.74;100.00
11053;BME280;55230;42.602;23.470;2023-04-26T05:19:22;92645.63;;;9.54;100.00
11053;BME280;55230;42.602;23.470;2023-04-26T05:21:49;92485.09;;;8.83;100.00
11053;BME280;55230;42.602;23.470;2023-04-26T05:24:18;92501.00;;;8.72;100.00
11053;BME280;55230;42.602;23.470;2023-04-26T05:26:44;92515.28;;;8.78;100.00
11053;BME280;55230;42.602;23.470;2023-04-26T05:29:11;92202.69;;;6.58;100.00
11053;BME280;55230;42.602;23.470;2023-04-26T05:31:38;92582.22;;;9.38;100.00
11053;BME280;55230;42.602;23.470;2023-04-26T05:34:05;92600.19;;;9.32;100.00
11053;BME280;55230;42.602;23.470;2023-04-26T05:36:31;92609.41;;;9.40;100.00
11053;BME280;55230;42.602;23.470;2023-04-26T05:38:58;92333.75;;;7.77;100.00
11053;BME280;55230;42.602;23.470;2023-04-26T05:41:26;92600.19;;;9.32;100.00
11053;BME280;55230;42.602;23.470;2023-04-26T05:43:53;92442.75;;;8.55;100.00
11053;BME280;55230;42.602;23.470;2023-04-26T05:46:19;92607.28;;;10.11;100.00
11053;BME280;55230;42.602;23.470;2023-04-26T05:48:46;92602.06;;;10.08;100.00
11053;BME280;55230;42.602;23.470;2023-04-26T05:51:13;92660.31;;;10.05;100.00
11053;BME280;55230;42.602;23.470;2023-04-26T05:53:40;92602.38;;;10.10;100.00
11053;BME280;55230;42.602;23.470;2023-04-26T05:56:07;92599.28;;;10.46;100.00
11053;BME280;55230;42.602;23.470;2023-04-26T05:58:35;92604.66;;;11.15;100.00
11053;BME280;55230;42.602;23.470;2023-04-26T06:01:01;92485.53;;;9.20;100.00
11053;BME280;55230;42.602;23.470;2023-04-26T06:03:28;92555.91;;;10.00;100.00
11053;BME280;55230;42.602;23.470;2023-04-26T06:05:55;92501.50;;;9.96;100.00
11053;BME280;55230;42.602;23.470;2023-04-26T06:08:22;92399.09;;;9.27;100.00
11053;BME280;55230;42.602;23.470;2023-04-26T06:10:49;92608.97;;;10.09;100.00
11053;BME280;55230;42.602;23.470;2023-04-26T06:13:16;92485.56;;;9.34;100.00
11053;BME280;55230;42.602;23.470;2023-04-26T06:15:44;92560.72;;;9.67;100.00
11053;BME280;55230;42.602;23.470;2023-04-26T06:18:11;92001.28;;;6.07;100.00
11053;BME280;55230;42.602;23.470;2023-04-26T06:20:38;92532.44;;;9.57;100.00
11053;BME280;55230;42.602;23.470;2023-04-26T06:23:05;92573.66;;;9.78;100.00
11053;BME280;55230;42.602;23.470;2023-04-26T06:25:32;92272.59;;;7.81;100.00
11053;BME280;55230;42.602;23.470;2023-04-26T06:27:59;92525.09;;;9.58;100.00
11053;BME280;55230;42.602;23.470;2023-04-26T06:30:26;92594.00;;;10.37;100.00
11053;BME280;55230;42.602;23.470;2023-04-26T06:32:54;92562.25;;;10.12;100.00
11053;BME280;55230;42.602;23.470;2023-04-26T06:35:23;92602.63;;;10.90;100.00
11053;BME280;55230;42.602;23.470;2023-04-26T06:37:50;92458.97;;;10.00;100.00
11053;BME280;55230;42.602;23.470;2023-04-26T06:40:17;92392.59;;;9.63;100.00
11053;BME280;55230;42.602;23.470;2023-04-26T06:42:44;92298.97;;;9.03;100.00
11053;BME280;55230;42.602;23.470;2023-04-26T06:45:11;92611.38;;;11.20;100.00
11053;BME280;55230;42.602;23.470;2023-04-26T06:47:38;92613.19;;;11.28;100.00
11053;BME280;55230;42.602;23.470;2023-04-26T06:50:08;92415.41;;;9.53;100.00
11053;BME280;55230;42.602;23.470;2023-04-26T06:52:35;92224.13;;;8.38;100.00
11053;BME280;55230;42.602;23.470;2023-04-26T06:55:02;92176.06;;;7.34;100.00
11053;BME280;55230;42.602;23.470;2023-04-26T06:57:29;92416.25;;;9.59;100.00
11053;BME280;55230;42.602;23.470;2023-04-26T06:59:56;92621.59;;;10.46;100.00
11053;BME280;55230;42.602;23.470;2023-04-26T07:02:23;92233.69;;;8.00;100.00
11053;BME280;55230;42.602;23.470;2023-04-26T07:04:50;92595.81;;;9.87;100.00
11053;BME280;55230;42.602;23.470;2023-04-26T07:07:18;92114.84;;;6.06;100.00
11053;BME280;55230;42.602;23.470;2023-04-26T07:09:45;92573.63;;;9.63;100.00
11053;BME280;55230;42.602;23.470;2023-04-26T07:12:12;92613.50;;;9.88;100.00
11053;BME280;55230;42.602;23.470;2023-04-26T07:14:39;92618.72;;;10.21;100.00
11053;BME280;55230;42.602;23.470;2023-04-26T07:17:07;92377.91;;;8.47;100.00
11053;BME280;55230;42.602;23.470;2023-04-26T07:19:34;92642.41;;;10.17;94.73
11053;BME280;55230;42.602;23.470;2023-04-26T07:22:01;92280.81;;;7.78;95.84
11053;BME280;55230;42.602;23.470;2023-04-26T07:24:30;92641.56;;;10.40;95.44
11053;BME280;55230;42.602;23.470;2023-04-26T07:26:57;92652.94;;;10.79;93.59
11053;BME280;55230;42.602;23.470;2023-04-26T07:29:24;92664.66;;;11.25;90.42
11053;BME280;55230;42.602;23.470;2023-04-26T07:31:50;92633.53;;;11.64;83.71
11053;BME280;55230;42.602;23.470;2023-04-26T07:34:17;92111.25;;;7.88;82.09
11053;BME280;55230;42.602;23.470;2023-04-26T07:36:44;92594.31;;;11.28;85.93
11053;BME280;55230;42.602;23.470;2023-04-26T07:39:10;92625.25;;;11.53;80.29
11053;BME280;55230;42.602;23.470;2023-04-26T07:41:39;92623.50;;;11.70;83.70
11053;BME280;55230;42.602;23.470;2023-04-26T07:44:05;92633.19;;;11.77;80.50
11053;BME280;55230;42.602;23.470;2023-04-26T07:46:32;92632.88;;;11.95;78.04
11053;BME280;55230;42.602;23.470;2023-04-26T07:48:59;92640.09;;;11.43;76.91
11053;BME280;55230;42.602;23.470;2023-04-26T07:51:26;92659.97;;;11.05;78.87
11053;BME280;55230;42.602;23.470;2023-04-26T07:53:53;92609.06;;;11.13;81.07
11053;BME280;55230;42.602;23.470;2023-04-26T07:56:20;92670.75;;;11.40;78.96
11053;BME280;55230;42.602;23.470;2023-04-26T07:58:49;92542.59;;;10.75;81.78
11053;BME280;55230;42.602;23.470;2023-04-26T08:01:16;92548.22;;;10.92;81.55
11053;BME280;55230;42.602;23.470;2023-04-26T08:03:43;92589.91;;;11.31;77.73
11053;BME280;55230;42.602;23.470;2023-04-26T08:06:10;92641.38;;;12.08;78.14
11053;BME280;55230;42.602;23.470;2023-04-26T08:08:36;92497.53;;;10.96;73.90
11053;BME280;55230;42.602;23.470;2023-04-26T08:11:09;92603.94;;;11.55;72.83
11053;BME280;55230;42.602;23.470;2023-04-26T08:13:36;92643.88;;;11.91;76.17
11053;BME280;55230;42.602;23.470;2023-04-26T08:16:04;92650.88;;;12.03;75.19
11053;BME280;55230;42.602;23.470;2023-04-26T08:18:31;92501.81;;;10.88;76.70
11053;BME280;55230;42.602;23.470;2023-04-26T08:20:58;92421.59;;;10.08;75.64
11053;BME280;55230;42.602;23.470;2023-04-26T08:23:25;92609.75;;;11.68;72.43
11053;BME280;55230;42.602;23.470;2023-04-26T08:25:52;92710.88;;;12.07;71.23
11053;BME280;55230;42.602;23.470;2023-04-26T08:28:19;92596.50;;;11.70;72.31
11053;BME280;55230;42.602;23.470;2023-04-26T08:30:46;92610.63;;;11.39;69.46
11053;BME280;55230;42.602;23.470;2023-04-26T08:33:16;92552.78;;;10.51;73.62
11053;BME280;55230;42.602;23.470;2023-04-26T08:35:43;92650.84;;;11.57;77.33
11053;BME280;55230;42.602;23.470;2023-04-26T08:38:10;92647.66;;;11.19;75.97
11053;BME280;55230;42.602;23.470;2023-04-26T08:40:37;92631.09;;;11.11;77.03
11053;BME280;55230;42.602;23.470;2023-04-26T08:43:07;92560.75;;;10.95;78.49
11053;BME280;55230;42.602;23.470;2023-04-26T08:45:38;92665.38;;;11.80;74.36
11053;BME280;55230;42.602;23.470;2023-04-26T08:48:09;92396.50;;;9.47;75.87
11053;BME280;55230;42.602;23.470;2023-04-26T08:50:42;92450.63;;;9.98;77.19
11053;BME280;55230;42.602;23.470;2023-04-26T08:53:13;92610.53;;;11.14;75.97
11053;BME280;55230;42.602;23.470;2023-04-26T08:55:40;92291.88;;;9.20;76.71
11053;BME280;55230;42.602;23.470;2023-04-26T08:58:07;92641.28;;;11.77;73.49
11053;BME280;55230;42.602;23.470;2023-04-26T09:00:35;92558.81;;;10.61;73.40
11053;BME280;55230;42.602;23.470;2023-04-26T09:03:02;92539.31;;;10.51;75.79
11053;BME280;55230;42.602;23.470;2023-04-26T09:05:29;92671.72;;;11.97;77.25
11053;BME280;55230;42.602;23.470;2023-04-26T09:08:00;92660.44;;;12.24;71.65
11053;BME280;55230;42.602;23.470;2023-04-26T09:10:28;92634.31;;;11.90;72.09
11053;BME280;55230;42.602;23.470;2023-04-26T09:12:56;92604.69;;;12.01;70.89
11053;BME280;55230;42.602;23.470;2023-04-26T09:15:24;92662.91;;;12.53;69.35
11053;BME280;55230;42.602;23.470;2023-04-26T09:17:52;92594.09;;;11.98;68.17
11053;BME280;55230;42.602;23.470;2023-04-26T09:20:21;92096.75;;;8.59;68.77
11053;BME280;55230;42.602;23.470;2023-04-26T09:22:49;92295.41;;;9.61;68.69
11053;BME280;55230;42.602;23.470;2023-04-26T09:25:25;92619.44;;;12.00;69.90
11053;BME280;55230;42.602;23.470;2023-04-26T09:27:52;92673.53;;;12.57;70.18
11053;BME280;55230;42.602;23.470;2023-04-26T09:30:20;92678.19;;;12.88;72.23
11053;BME280;55230;42.602;23.470;2023-04-26T09:32:50;92224.31;;;9.47;66.59
11053;BME280;55230;42.602;23.470;2023-04-26T09:35:28;92679.66;;;13.14;68.29
11053;BME280;55230;42.602;23.470;2023-04-26T09:37:56;92616.13;;;12.42;67.53
11053;BME280;55230;42.602;23.470;2023-04-26T09:40:27;92653.59;;;12.86;68.63
11053;BME280;55230;42.602;23.470;2023-04-26T09:43:04;92617.31;;;12.66;64.86
11053;BME280;55230;42.602;23.470;2023-04-26T09:45:32;92631.69;;;12.52;64.41
11053;BME280;55230;42.602;23.470;2023-04-26T09:48:17;92641.59;;;11.84;64.53
11053;BME280;55230;42.602;23.470;2023-04-26T09:50:45;92639.56;;;12.50;65.96
11053;BME280;55230;42.602;23.470;2023-04-26T09:53:24;92671.31;;;12.87;66.02
11053;BME280;55230;42.602;23.470;2023-04-26T09:55:53;92273.56;;;10.13;66.80
11053;BME280;55230;42.602;23.470;2023-04-26T09:58:20;92647.75;;;13.29;63.51
11053;BME280;55230;42.602;23.470;2023-04-26T10:00:49;92668.16;;;13.25;60.37
11053;BME280;55230;42.602;23.470;2023-04-26T10:03:17;92663.13;;;13.49;61.28
11053;BME280;55230;42.602;23.470;2023-04-26T10:05:44;92604.16;;;13.27;62.46
11053;BME280;55230;42.602;23.470;2023-04-26T10:08:11;92658.38;;;13.91;59.02
11053;BME280;55230;42.602;23.470;2023-04-26T10:10:38;92657.53;;;13.58;62.27
11053;BME280;55230;42.602;23.470;2023-04-26T10:13:08;92605.38;;;13.79;62.86
11053;BME280;55230;42.602;23.470;2023-04-26T10:15:36;92652.84;;;14.39;58.18
11053;BME280;55230;42.602;23.470;2023-04-26T10:18:04;92644.84;;;13.97;56.58
11053;BME280;55230;42.602;23.470;2023-04-26T10:20:31;92560.47;;;12.98;59.38
11053;BME280;55230;42.602;23.470;2023-04-26T10:22:58;92171.81;;;10.80;57.27
11053;BME280;55230;42.602;23.470;2023-04-26T10:25:34;92650.28;;;14.08;59.13
11053;BME280;55230;42.602;23.470;2023-04-26T10:28:01;92650.78;;;13.42;60.40
11053;BME280;55230;42.602;23.470;2023-04-26T10:30:30;92575.81;;;12.80;62.54
11053;BME280;55230;42.602;23.470;2023-04-26T10:33:15;92656.59;;;13.24;64.61
11053;BME280;55230;42.602;23.470;2023-04-26T10:36:07;92652.66;;;13.73;60.43
11053;BME280;55230;42.602;23.470;2023-04-26T10:38:38;92678.81;;;13.34;60.16
11053;BME280;55230;42.602;23.470;2023-04-26T10:41:31;92641.59;;;13.29;59.10
11053;BME280;55230;42.602;23.470;2023-04-26T10:44:34;92194.97;;;10.35;58.65
11053;BME280;55230;42.602;23.470;2023-04-26T10:46:52;92653.03;;;13.49;58.06
11053;BME280;55230;42.602;23.470;2023-04-26T10:49:19;92536.75;;;12.14;59.42
11053;BME280;55230;42.602;23.470;2023-04-26T10:52:09;92643.25;;;12.27;63.45
11053;BME280;55230;42.602;23.470;2023-04-26T10:54:53;92239.84;;;9.58;62.72
11053;BME280;55230;42.602;23.470;2023-04-26T10:57:21;92641.41;;;12.13;65.52
11053;BME280;55230;42.602;23.470;2023-04-26T11:03:06;92472.41;;;10.49;70.42
11053;BME280;55230;42.602;23.470;2023-04-26T11:05:53;92596.09;;;11.57;71.79
11053;BME280;55230;42.602;23.470;2023-04-26T11:08:24;92646.31;;;11.29;74.06
11053;BME280;55230;42.602;23.470;2023-04-26T11:11:04;92655.41;;;11.66;75.21
11053;BME280;55230;42.602;23.470;2023-04-26T11:13:34;92564.56;;;10.68;71.60
11053;BME280;55230;42.602;23.470;2023-04-26T11:16:03;92514.84;;;10.34;75.38
11053;BME280;55230;42.602;23.470;2023-04-26T11:18:33;92624.50;;;11.12;79.02
11053;BME280;55230;42.602;23.470;2023-04-26T11:21:00;92645.09;;;11.50;70.93
11053;BME280;55230;42.602;23.470;2023-04-26T11:23:28;92585.09;;;11.20;73.12
11053;BME280;55230;42.602;23.470;2023-04-26T11:25:56;92579.78;;;11.26;67.79
11053;BME280;55230;42.602;23.470;2023-04-26T11:28:23;92656.19;;;11.92;62.98
11053;BME280;55230;42.602;23.470;2023-04-26T11:30:51;92550.19;;;10.57;61.00
11053;BME280;55230;42.602;23.470;2023-04-26T11:33:20;92658.06;;;11.86;61.66
11053;BME280;55230;42.602;23.470;2023-04-26T11:35:49;92678.53;;;11.93;61.65
11053;BME280;55230;42.602;23.470;2023-04-26T11:38:16;92296.84;;;9.76;60.22
11053;BME280;55230;42.602;23.470;2023-04-26T11:40:43;92643.06;;;12.05;58.02
11053;BME280;55230;42.602;23.470;2023-04-26T11:43:12;92509.97;;;11.33;60.84
11053;BME280;55230;42.602;23.470;2023-04-26T11:45:39;92648.88;;;12.24;58.34
11053;BME280;55230;42.602;23.470;2023-04-26T11:48:09;92598.59;;;12.06;57.57
11053;BME280;55230;42.602;23.470;2023-04-26T11:50:37;92657.88;;;12.41;53.73
11053;BME280;55230;42.602;23.470;2023-04-26T11:53:07;92599.50;;;11.98;55.95
11053;BME280;55230;42.602;23.470;2023-04-26T11:55:34;92522.84;;;11.95;55.07
11053;BME280;55230;42.602;23.470;2023-04-26T11:58:08;92637.28;;;12.74;56.47
11053;BME280;55230;42.602;23.470;2023-04-26T12:00:35;92639.19;;;12.68;55.09
11053;BME280;55230;42.602;23.470;2023-04-26T12:03:04;92638.16;;;12.60;55.31
11053;BME280;55230;42.602;23.470;2023-04-26T12:05:35;92644.09;;;12.64;53.77
11053;BME280;55230;42.602;23.470;2023-04-26T12:08:02;92632.53;;;12.64;56.24
11053;BME280;55230;42.602;23.470;2023-04-26T12:10:34;92556.69;;;12.16;53.40
11053;BME280;55230;42.602;23.470;2023-04-26T12:13:01;92533.59;;;11.90;53.88
11053;BME280;55230;42.602;23.470;2023-04-26T12:15:29;92585.75;;;12.52;54.61
11053;BME280;55230;42.602;23.470;2023-04-26T12:17:59;92511.69;;;12.08;52.85
11053;BME280;55230;42.602;23.470;2023-04-26T12:20:31;92627.38;;;12.97;54.42
11053;BME280;55230;42.602;23.470;2023-04-26T12:23:00;92576.44;;;12.59;53.22
11053;BME280;55230;42.602;23.470;2023-04-26T12:25:27;92532.31;;;12.11;53.34
11053;BME280;55230;42.602;23.470;2023-04-26T12:27:56;92509.34;;;11.95;53.70
11053;BME280;55230;42.602;23.470;2023-04-26T12:30:24;92551.75;;;11.84;54.83
11053;BME280;55230;42.602;23.470;2023-04-26T12:32:51;92538.69;;;11.82;53.03
11053;BME280;55230;42.602;23.470;2023-04-26T12:35:18;92624.13;;;12.31;52.91
11053;BME280;55230;42.602;23.470;2023-04-26T12:37:45;92451.84;;;11.12;56.73
11053;BME280;55230;42.602;23.470;2023-04-26T12:40:12;92564.97;;;12.07;54.65
11053;BME280;55230;42.602;23.470;2023-04-26T12:42:40;92619.78;;;12.39;55.92
11053;BME280;55230;42.602;23.470;2023-04-26T12:45:09;92524.25;;;11.39;54.80
11053;BME280;55230;42.602;23.470;2023-04-26T12:47:36;92574.66;;;11.68;57.65
11053;BME280;55230;42.602;23.470;2023-04-26T12:50:03;92620.06;;;12.15;57.69
11053;BME280;55230;42.602;23.470;2023-04-26T12:52:30;92627.91;;;12.13;55.90
11053;BME280;55230;42.602;23.470;2023-04-26T12:54:57;92295.78;;;9.88;57.65
11053;BME280;55230;42.602;23.470;2023-04-26T12:57:24;92621.34;;;12.20;57.13